Port Heiden, Alaska
Current Conditions -  °F | °C
As of 8:36 PM on Wednesday 22 Oct 2014 (Local Time) from PAPH Reporting Station
Clear Clear  
Wind Chill: 26°   Ceiling: Unl
Heat Index: 37°   Visibility: 10mi
Dew Point: 28°   Wind: 24mph
Humidity: 70%   Direction: 310°NW
Pressure: 29.79"   Gusts: 33mph
Location:  56.95°N, 158.63°W
Report Text: PAPH 230436Z AUTO 31021G29KT 10SM CLR 03/M02 A2979 RMK AO1
Loading
Personal Weather Stations






























Interactive Weather Map
Tropical Storm Tracking
New forecast layout! Learn more

10-Day Weather Forecast

Advertisements
Track Severe Weather on mobile